Time;durP1;ratioP1;P1;durP2;ratioP2;P2;SDS_P1;SDS_P2;PMS_P1;PMS_P2;Temp;Humidity;BMP_temperature;BMP_pressure;BME280_temperature;BME280_humidity;BME280_pressure;Samples;Min_cycle;Max_cycle;Signal;HPM_P1;HPM_P2
2024/02/07 00:00:27;;;;;;;8.10;6.50;;;;;;;2.02;100.00;97274.38;1221907;75;2930165;-64
2024/02/07 00:03:00;;;;;;;7.90;6.35;;;;;;;2.02;100.00;97274.38;1223534;75;2976270;-61
2024/02/07 00:05:33;;;;;;;7.60;6.20;;;;;;;2.04;100.00;97280.06;1220428;75;2922520;-64
2024/02/07 00:08:07;;;;;;;6.70;5.55;;;;;;;2.09;100.00;97276.88;1225616;75;2916944;-63
2024/02/07 00:10:43;;;;;;;9.50;6.80;;;;;;;1.77;100.00;97279.66;1222825;75;2875689;-63
2024/02/07 00:13:15;;;;;;;8.45;7.05;;;;;;;2.05;100.00;97270.81;1223013;75;2898916;-63
2024/02/07 00:15:48;;;;;;;6.15;5.50;;;;;;;2.08;100.00;97266.50;1224728;75;2916144;-66
2024/02/07 00:18:21;;;;;;;8.45;6.25;;;;;;;2.04;100.00;97269.28;1220159;75;3087006;-62
2024/02/07 00:20:54;;;;;;;7.65;5.60;;;;;;;2.08;100.00;97272.63;1224106;75;2943522;-59
2024/02/07 00:23:27;;;;;;;7.00;5.35;;;;;;;2.05;100.00;97264.66;1221412;75;2944896;-61
2024/02/07 00:26:03;;;;;;;6.55;4.90;;;;;;;2.06;100.00;97258.06;1223805;75;2917892;-64
2024/02/07 00:28:36;;;;;;;6.25;4.50;;;;;;;1.98;100.00;97267.53;1221144;75;2915153;-63
2024/02/07 00:31:08;;;;;;;7.70;6.10;;;;;;;1.95;100.00;97271.09;1224787;75;2857880;-64
2024/02/07 00:33:41;;;;;;;8.90;6.85;;;;;;;2.04;100.00;97261.19;1225144;75;2915685;-63
2024/02/07 00:36:14;;;;;;;7.65;6.05;;;;;;;2.01;100.00;97253.94;1222517;75;2864742;-63
2024/02/07 00:38:48;;;;;;;6.40;4.80;;;;;;;1.98;100.00;97254.06;1220771;83;2988475;-63
2024/02/07 00:41:28;;;;;;;7.50;5.60;;;;;;;1.74;100.00;97257.00;1222763;75;2920655;-61
2024/02/07 00:44:01;;;;;;;6.80;5.50;;;;;;;1.77;100.00;97241.88;1224144;75;2917731;-63
2024/02/07 00:46:34;;;;;;;7.60;6.00;;;;;;;1.74;100.00;97238.09;1222102;75;2919250;-64
2024/02/07 00:49:12;;;;;;;6.20;5.05;;;;;;;1.58;100.00;97249.69;1226072;75;2918650;-62
2024/02/07 00:51:45;;;;;;;7.20;4.70;;;;;;;1.72;100.00;97235.06;1226744;75;2914893;-62
2024/02/07 00:54:18;;;;;;;6.45;5.15;;;;;;;1.76;100.00;97240.38;1224301;75;2911033;-64
2024/02/07 00:56:53;;;;;;;6.10;4.90;;;;;;;1.80;100.00;97230.22;1218942;75;2970693;-63
2024/02/07 00:59:26;;;;;;;4.90;4.10;;;;;;;1.81;100.00;97234.47;1224655;75;2913384;-62
2024/02/07 01:02:00;;;;;;;5.15;3.75;;;;;;;1.77;100.00;97239.19;1225786;75;2928342;-66
2024/02/07 01:04:33;;;;;;;5.20;3.85;;;;;;;1.62;100.00;97231.47;1225244;75;2916626;-62
2024/02/07 01:07:07;;;;;;;6.55;5.00;;;;;;;1.65;100.00;97233.31;1226140;75;2918362;-65
2024/02/07 01:09:40;;;;;;;4.60;4.00;;;;;;;1.76;100.00;97235.75;1224754;75;2911700;-62
2024/02/07 01:12:16;;;;;;;9.20;6.00;;;;;;;1.40;100.00;97235.91;1225463;75;2914216;-61
2024/02/07 01:14:49;;;;;;;11.75;8.55;;;;;;;1.25;100.00;97236.28;1225297;75;2920390;-62
2024/02/07 01:17:22;;;;;;;10.15;6.80;;;;;;;1.34;100.00;97237.59;1225609;75;2926414;-62
2024/02/07 01:19:55;;;;;;;7.45;6.65;;;;;;;1.32;100.00;97256.13;1226156;75;2914456;-63
2024/02/07 01:22:28;;;;;;;7.75;5.75;;;;;;;1.27;100.00;97225.03;1225573;75;2910259;-64
2024/02/07 01:25:01;;;;;;;6.05;4.85;;;;;;;1.40;100.00;97233.22;1225783;75;2920017;-61
2024/02/07 01:27:37;;;;;;;6.60;4.60;;;;;;;1.33;100.00;97230.69;1225534;75;2914187;-61
2024/02/07 01:30:11;;;;;;;7.10;5.70;;;;;;;1.28;100.00;97215.78;1225278;75;2909877;-63
2024/02/07 01:32:45;;;;;;;6.65;4.95;;;;;;;1.21;100.00;97234.84;1225415;75;2920326;-62
2024/02/07 01:35:18;;;;;;;11.25;6.90;;;;;;;1.04;100.00;97224.06;1226287;75;2913245;-65
2024/02/07 01:37:51;;;;;;;7.10;5.40;;;;;;;1.25;100.00;97228.19;1225873;75;2917501;-64
2024/02/07 01:40:23;;;;;;;5.30;4.70;;;;;;;1.19;100.00;97224.47;1225734;75;2920419;-62
2024/02/07 01:43:01;;;;;;;9.95;6.05;;;;;;;0.82;100.00;97221.13;1226379;75;2913277;-63
2024/02/07 01:45:33;;;;;;;7.65;5.70;;;;;;;0.95;100.00;97213.13;1225640;75;2916014;-63
2024/02/07 01:48:08;;;;;;;6.60;4.85;;;;;;;1.08;100.00;97212.44;1226255;75;2913751;-63
2024/02/07 01:50:43;;;;;;;6.20;4.30;;;;;;;0.85;100.00;97209.50;1225096;75;2912903;-58
2024/02/07 01:53:16;;;;;;;8.25;5.50;;;;;;;0.94;100.00;97205.44;1224861;75;2920925;-66
2024/02/07 01:55:52;;;;;;;7.50;6.00;;;;;;;0.59;100.00;97213.94;1225318;75;2914402;-61
2024/02/07 01:58:31;;;;;;;10.95;7.65;;;;;;;0.60;100.00;97209.31;1225079;75;2911762;-64
2024/02/07 02:01:05;;;;;;;10.50;6.65;;;;;;;0.76;100.00;97220.09;1225016;75;2918093;-62
2024/02/07 02:03:38;;;;;;;10.50;7.20;;;;;;;0.72;100.00;97194.44;1226068;75;2932544;-62
2024/02/07 02:06:12;;;;;;;10.70;6.45;;;;;;;0.73;100.00;97193.25;1224875;75;2912601;-61
2024/02/07 02:08:44;;;;;;;7.15;6.00;;;;;;;0.76;100.00;97192.41;1225746;75;2910729;-63
2024/02/07 02:11:25;;;;;;;6.25;4.80;;;;;;;0.76;100.00;97193.16;1219192;75;3305734;-63
2024/02/07 02:14:01;;;;;;;6.50;4.85;;;;;;;0.59;100.00;97186.25;1226803;75;2834945;-62
2024/02/07 02:16:35;;;;;;;6.30;4.65;;;;;;;0.71;100.00;97172.13;1224914;75;2954750;-61
2024/02/07 02:19:08;;;;;;;8.40;5.20;;;;;;;0.60;100.00;97175.09;1223529;75;2909948;-62
2024/02/07 02:21:58;;;;;;;9.60;6.65;;;;;;;0.48;100.00;97172.28;1224466;83;2923588;-61
2024/02/07 02:25:03;;;;;;;8.40;6.25;;;;;;;0.36;100.00;97171.00;1223404;75;2940962;-59
2024/02/07 02:27:54;;;;;;;6.50;5.40;;;;;;;0.56;100.00;97155.53;1226171;75;2918506;-64
2024/02/07 02:30:40;;;;;;;5.45;4.25;;;;;;;0.57;100.00;97165.13;1226463;75;2918681;-64
2024/02/07 02:33:18;;;;;;;7.75;5.50;;;;;;;0.23;100.00;97154.75;1224910;75;2914354;-64
2024/02/07 02:35:53;;;;;;;7.25;5.05;;;;;;;0.48;100.00;97164.19;1225669;75;2931901;-63
2024/02/07 02:38:27;;;;;;;6.90;4.85;;;;;;;0.31;100.00;97153.41;1225861;75;2913978;-62
2024/02/07 02:40:59;;;;;;;9.55;5.15;;;;;;;0.31;100.00;97158.78;1225152;75;2908959;-61
2024/02/07 02:43:32;;;;;;;6.35;4.95;;;;;;;0.41;100.00;97159.75;1224866;75;2917202;-66
2024/02/07 02:46:09;;;;;;;7.70;5.45;;;;;;;0.17;100.00;97156.44;1226023;75;2913437;-59
2024/02/07 02:48:42;;;;;;;7.30;5.35;;;;;;;0.29;100.00;97158.47;1225321;75;2916023;-63
2024/02/07 02:51:14;;;;;;;7.60;5.20;;;;;;;0.14;100.00;97155.31;1225739;75;2913862;-63
2024/02/07 02:53:48;;;;;;;8.45;5.85;;;;;;;0.15;100.00;97150.72;1225756;75;2911771;-65
2024/02/07 02:56:21;;;;;;;8.15;5.65;;;;;;;0.00;100.00;97147.59;1225337;75;2915669;-65
2024/02/07 02:58:54;;;;;;;8.25;6.00;;;;;;;-0.10;100.00;97146.63;1224880;75;2916950;-63
2024/02/07 03:01:29;;;;;;;12.15;7.40;;;;;;;-0.14;100.00;97145.94;1225974;75;2912889;-63
2024/02/07 03:04:03;;;;;;;8.95;6.15;;;;;;;-0.14;100.00;97147.88;1225019;75;2922300;-63
2024/02/07 03:06:58;;;;;;;8.50;6.05;;;;;;;-0.04;100.00;97147.66;1224915;75;2912633;-61
2024/02/07 03:09:35;;;;;;;6.35;4.80;;;;;;;-0.05;100.00;97151.53;1225233;75;2929616;-62
2024/02/07 03:12:08;;;;;;;5.60;4.25;;;;;;;-0.17;100.00;97152.13;1225242;75;2922050;-61
2024/02/07 03:14:41;;;;;;;7.95;5.65;;;;;;;-0.23;100.00;97135.00;1225269;75;2958179;-59
2024/02/07 03:17:16;;;;;;;6.95;4.55;;;;;;;-0.12;100.00;97135.53;1224732;75;2919580;-65
2024/02/07 03:19:49;;;;;;;5.60;4.40;;;;;;;-0.07;100.00;97137.72;1224125;75;2921883;-64
2024/02/07 03:22:22;;;;;;;7.15;4.30;;;;;;;-0.22;100.00;97125.72;1224640;75;2925938;-63
2024/02/07 03:24:56;;;;;;;8.15;5.85;;;;;;;-0.35;100.00;97128.31;1224458;75;2919540;-61
2024/02/07 03:27:28;;;;;;;6.75;5.60;;;;;;;-0.19;100.00;97119.53;1224227;75;2937016;-63
2024/02/07 03:30:01;;;;;;;7.15;5.50;;;;;;;-0.21;100.00;97113.81;1224984;75;2925843;-63
2024/02/07 03:32:38;;;;;;;10.10;6.30;;;;;;;-0.29;100.00;97109.75;1223881;75;2923737;-64
2024/02/07 03:35:11;;;;;;;7.00;5.35;;;;;;;-0.13;100.00;97109.78;1225177;75;2918562;-61
2024/02/07 03:37:44;;;;;;;5.65;4.25;;;;;;;-0.10;100.00;97110.88;1224620;75;2925445;-61
2024/02/07 03:40:18;;;;;;;6.25;4.10;;;;;;;-0.15;100.00;97112.13;1225044;75;2916050;-66
2024/02/07 03:42:51;;;;;;;4.80;3.75;;;;;;;-0.15;100.00;97106.75;1225268;75;2922624;-63
2024/02/07 03:45:24;;;;;;;5.55;4.30;;;;;;;-0.15;100.00;97112.13;1224818;75;2921105;-64
2024/02/07 03:48:00;;;;;;;5.50;4.05;;;;;;;-0.10;100.00;97110.88;1224832;75;2919981;-62
2024/02/07 03:50:33;;;;;;;6.60;4.85;;;;;;;0.04;100.00;97109.81;1223984;75;2922969;-63
2024/02/07 03:53:07;;;;;;;6.05;4.05;;;;;;;0.07;100.00;97108.97;1225714;75;2921608;-59
2024/02/07 03:55:41;;;;;;;6.85;3.80;;;;;;;0.08;100.00;97107.81;1224323;75;2914645;-66
2024/02/07 03:58:13;;;;;;;5.35;3.75;;;;;;;0.15;100.00;97100.34;1202464;75;4637493;-62
2024/02/07 04:00:47;;;;;;;4.30;3.60;;;;;;;0.20;100.00;97107.16;1225192;75;2929587;-61
2024/02/07 04:03:22;;;;;;;5.25;4.10;;;;;;;0.02;100.00;97115.63;1223744;75;2933881;-60
2024/02/07 04:05:56;;;;;;;8.80;5.05;;;;;;;-0.12;100.00;97103.25;1223188;75;2934747;-62
2024/02/07 04:08:29;;;;;;;9.05;5.85;;;;;;;-0.08;100.00;97109.28;1225184;75;2923162;-62
2024/02/07 04:11:01;;;;;;;7.20;5.85;;;;;;;-0.10;100.00;97108.19;1225181;75;2928038;-62
2024/02/07 05:16:45;;;;;;;11.90;7.50;;;;;;;-0.73;100.00;97104.47;1224616;75;2931584;-63
2024/02/07 05:19:18;;;;;;;12.50;8.40;;;;;;;-0.57;100.00;97097.66;1224152;75;2926691;-66
2024/02/07 05:21:51;;;;;;;7.65;6.25;;;;;;;-0.64;100.00;97109.31;1223683;75;2923207;-62
2024/02/07 05:24:27;;;;;;;9.20;6.40;;;;;;;-0.62;100.00;97109.66;1223730;75;2927161;-63
2024/02/07 05:27:00;;;;;;;7.90;5.75;;;;;;;-0.79;100.00;97111.50;1222980;75;2927655;-61
2024/02/07 05:29:33;;;;;;;8.75;6.50;;;;;;;-0.67;100.00;97104.75;1223784;75;2924544;-62
2024/02/07 05:32:06;;;;;;;8.15;6.05;;;;;;;-0.62;100.00;97104.28;1224042;75;2928480;-61
2024/02/07 05:34:39;;;;;;;7.25;5.35;;;;;;;-0.74;100.00;97105.66;1223364;75;2930526;-63
2024/02/07 05:37:12;;;;;;;10.30;6.50;;;;;;;-0.77;100.00;97097.66;1223765;75;2928422;-64
2024/02/07 05:39:48;;;;;;;8.95;6.50;;;;;;;-0.86;100.00;97104.34;1224081;75;2919316;-62
2024/02/07 05:42:20;;;;;;;8.05;5.70;;;;;;;-0.75;100.00;97101.44;1223533;75;2926270;-61
2024/02/07 05:44:53;;;;;;;9.30;6.90;;;;;;;-0.77;100.00;97103.03;1224057;75;2935709;-64
2024/02/07 05:47:27;;;;;;;9.70;6.75;;;;;;;-0.77;100.00;97098.44;1223299;75;2935410;-64
2024/02/07 05:49:59;;;;;;;12.15;8.70;;;;;;;-0.79;100.00;97108.06;1218401;75;3021727;-65
2024/02/07 05:52:32;;;;;;;19.25;12.85;;;;;;;-0.84;100.00;97103.16;1219908;83;3054408;-67
2024/02/07 05:55:09;;;;;;;15.70;10.25;;;;;;;-0.91;100.00;97104.81;1223962;75;2927839;-63
2024/02/07 05:57:42;;;;;;;19.35;12.55;;;;;;;-0.94;100.00;97108.34;1223621;75;2931012;-63
2024/02/07 06:00:16;;;;;;;15.55;10.35;;;;;;;-1.01;100.00;97113.06;1224051;75;2921754;-64
2024/02/07 06:02:50;;;;;;;15.25;10.65;;;;;;;-0.86;100.00;97115.09;1223457;75;2930737;-63
2024/02/07 06:05:23;;;;;;;17.40;11.70;;;;;;;-0.79;100.00;97116.13;1224929;75;2873531;-62
2024/02/07 06:07:55;;;;;;;18.70;12.90;;;;;;;-0.89;100.00;97115.13;1224055;75;2924899;-62
2024/02/07 06:10:31;;;;;;;16.50;10.35;;;;;;;-0.94;100.00;97116.41;1224039;75;2924095;-62
2024/02/07 06:13:06;;;;;;;11.90;7.95;;;;;;;-0.84;100.00;97112.00;1223297;75;2926143;-62
2024/02/07 06:15:39;;;;;;;10.80;7.00;;;;;;;-0.91;100.00;97115.56;1222843;75;2927941;-61
2024/02/07 06:18:12;;;;;;;10.95;7.25;;;;;;;-1.03;100.00;97116.19;1223489;75;2924609;-65
2024/02/07 06:20:45;;;;;;;12.15;7.40;;;;;;;-1.14;100.00;97126.34;1223508;75;2920375;-60
2024/02/07 06:23:18;;;;;;;12.05;8.45;;;;;;;-0.87;100.00;97127.03;1223322;75;2925769;-63
2024/02/07 06:25:54;;;;;;;10.35;7.05;;;;;;;-0.79;100.00;97132.25;1223459;75;2928643;-59
2024/02/07 06:28:27;;;;;;;8.45;6.35;;;;;;;-0.77;100.00;97129.91;1223831;75;2922730;-58
2024/02/07 06:31:00;;;;;;;11.60;7.10;;;;;;;-0.88;100.00;97125.47;1223411;67;2932913;-62
2024/02/07 06:33:32;;;;;;;8.95;6.40;;;;;;;-0.79;100.00;97129.56;1223368;75;2927309;-65
2024/02/07 06:36:06;;;;;;;14.15;8.70;;;;;;;-0.90;100.00;97127.81;1224309;75;2924180;-59
2024/02/07 06:38:39;;;;;;;12.00;8.20;;;;;;;-0.74;100.00;97140.59;1224095;75;2929021;-64
2024/02/07 06:41:14;;;;;;;11.90;8.10;;;;;;;-0.70;100.00;97129.75;1223705;75;2920236;-66
2024/02/07 06:43:47;;;;;;;14.25;8.60;;;;;;;-0.61;100.00;97137.28;1224155;75;2923559;-64
2024/02/07 06:46:20;;;;;;;12.15;7.50;;;;;;;-0.59;100.00;97130.31;1223914;75;2935999;-61
2024/02/07 06:48:53;;;;;;;10.80;7.10;;;;;;;-0.57;100.00;97137.97;1223967;75;2927409;-62
2024/02/07 06:51:25;;;;;;;12.00;7.90;;;;;;;-0.54;100.00;97121.78;1224250;75;2923724;-63
2024/02/07 06:53:58;;;;;;;8.85;6.05;;;;;;;-0.41;100.00;97123.81;1223625;75;2931731;-61
2024/02/07 06:56:34;;;;;;;9.45;6.40;;;;;;;-0.32;100.00;97124.03;1223986;75;2924516;-61
2024/02/07 06:59:11;;;;;;;8.10;6.05;;;;;;;-0.24;100.00;97130.75;1224627;75;2925751;-65
2024/02/07 07:01:44;;;;;;;7.50;5.25;;;;;;;-0.13;100.00;97127.88;1223824;75;2935415;-60
2024/02/07 07:04:17;;;;;;;7.90;5.25;;;;;;;0.76;100.00;97133.13;1224748;75;2921590;-61
2024/02/07 07:06:49;;;;;;;10.35;6.35;;;;;;;3.16;100.00;97126.13;1223950;75;2925975;-61
2024/02/07 07:09:22;;;;;;;6.20;4.55;;;;;;;4.91;97.73;97130.41;1216524;75;2932009;-61
2024/02/07 07:11:58;;;;;;;7.50;4.80;;;;;;;6.68;80.04;97131.56;1223324;75;2922600;-63
2024/02/07 07:14:31;;;;;;;9.45;5.65;;;;;;;6.61;77.56;97125.25;1223935;75;2925835;-61
2024/02/07 07:17:03;;;;;;;6.65;4.80;;;;;;;8.06;70.25;97139.34;1223761;75;2928485;-63
2024/02/07 07:19:36;;;;;;;9.50;5.75;;;;;;;8.44;68.48;97129.53;1223145;75;2937882;-61
2024/02/07 07:22:10;;;;;;;6.95;5.35;;;;;;;9.66;64.04;97127.28;1224792;75;2928720;-61
2024/02/07 07:24:44;;;;;;;6.60;5.20;;;;;;;10.24;60.68;97133.47;1224198;75;2925478;-63
2024/02/07 07:27:20;;;;;;;7.45;6.05;;;;;;;12.07;56.26;97127.75;1224391;75;2923630;-64
2024/02/07 07:29:53;;;;;;;6.10;4.95;;;;;;;13.24;52.22;97122.53;1221735;75;2929136;-64
2024/02/07 07:32:26;;;;;;;7.30;5.75;;;;;;;13.53;50.60;97118.41;1223460;75;2925832;-61
2024/02/07 07:34:58;;;;;;;9.25;5.30;;;;;;;13.85;49.21;97106.97;1221214;75;2918971;-64
2024/02/07 07:37:31;;;;;;;7.00;4.80;;;;;;;15.69;45.89;97104.78;1223978;75;2931125;-63
2024/02/07 07:40:04;;;;;;;12.40;6.15;;;;;;;15.01;46.52;97104.91;1224110;75;2927422;-62
2024/02/07 07:42:40;;;;;;;7.50;5.25;;;;;;;16.72;43.65;97097.09;1221204;75;3048917;-62
2024/02/07 07:45:12;;;;;;;8.70;5.25;;;;;;;16.75;43.80;97101.56;1224028;75;2918783;-64
2024/02/07 07:47:45;;;;;;;7.55;5.00;;;;;;;17.18;42.52;97098.47;1223736;75;2921397;-63
2024/02/07 07:50:18;;;;;;;7.25;4.90;;;;;;;18.48;40.36;97104.56;1224749;75;2925794;-62
2024/02/07 07:52:51;;;;;;;9.50;6.30;;;;;;;17.65;41.74;97102.50;1195977;75;5229217;-62
2024/02/07 07:55:24;;;;;;;11.80;7.50;;;;;;;13.15;48.59;97107.06;1225269;75;2922701;-62
2024/02/07 07:58:00;;;;;;;17.80;8.65;;;;;;;11.40;52.28;97108.44;1225799;75;2915773;-62
2024/02/07 08:00:33;;;;;;;12.35;7.85;;;;;;;13.38;50.20;97098.78;1225291;75;2925911;-62
2024/02/07 08:03:07;;;;;;;12.25;8.05;;;;;;;14.93;46.79;97101.25;1224833;75;2918237;-59
2024/02/07 08:05:41;;;;;;;11.70;7.90;;;;;;;15.18;46.45;97086.16;1224147;75;2926859;-63
2024/02/07 08:08:14;;;;;;;12.00;7.80;;;;;;;16.33;44.82;97093.00;1223363;75;2926788;-66
2024/02/07 08:10:48;;;;;;;9.55;6.35;;;;;;;15.82;43.56;97084.78;1224819;75;2920558;-59
2024/02/07 08:13:23;;;;;;;12.60;7.45;;;;;;;13.77;47.96;97081.28;1224292;75;2921997;-64
2024/02/07 08:15:56;;;;;;;10.45;7.35;;;;;;;14.07;48.31;97076.53;1224838;75;2923781;-62
2024/02/07 08:18:29;;;;;;;6.85;5.30;;;;;;;15.67;45.08;97074.22;1224318;75;2921172;-63
2024/02/07 08:21:02;;;;;;;11.70;8.20;;;;;;;12.36;50.70;97085.38;1224650;75;2921442;-62
2024/02/07 08:23:35;;;;;;;14.30;7.20;;;;;;;11.48;52.67;97079.34;1224621;75;2924053;-63
2024/02/07 08:26:08;;;;;;;9.20;6.50;;;;;;;13.46;50.05;97069.47;1224118;75;2923369;-62
2024/02/07 08:28:43;;;;;;;8.20;5.50;;;;;;;13.07;48.71;97080.66;1223811;75;2927737;-62
2024/02/07 08:31:20;;;;;;;7.30;5.70;;;;;;;10.43;54.36;97082.66;1223519;75;2926926;-62
2024/02/07 08:33:53;;;;;;;7.40;5.35;;;;;;;11.41;53.86;97068.84;1223130;75;2925905;-66
2024/02/07 08:36:26;;;;;;;5.90;4.35;;;;;;;13.60;48.15;97068.38;1223810;75;2920093;-63
2024/02/07 08:38:59;;;;;;;7.30;4.75;;;;;;;11.83;50.26;97075.38;1223852;75;2916909;-66
2024/02/07 08:41:31;;;;;;;7.80;5.45;;;;;;;9.60;56.19;97069.84;1223764;75;2926675;-64
2024/02/07 08:44:07;;;;;;;7.30;4.90;;;;;;;12.23;51.50;97065.16;1222517;75;3065678;-65
2024/02/07 08:46:40;;;;;;;7.95;5.05;;;;;;;11.29;51.06;97070.81;1223452;75;2929108;-63
2024/02/07 08:49:16;;;;;;;8.35;5.75;;;;;;;10.07;55.17;97064.97;1223461;75;2922172;-64
2024/02/07 08:51:49;;;;;;;8.10;5.30;;;;;;;11.92;52.05;97064.19;1224229;75;2923992;-62
2024/02/07 08:54:24;;;;;;;7.95;5.80;;;;;;;11.66;51.39;97069.88;1223670;75;2924914;-61
2024/02/07 08:56:56;;;;;;;11.70;6.60;;;;;;;9.84;55.24;97066.81;1224333;75;2924335;-64
2024/02/07 08:59:32;;;;;;;6.10;4.75;;;;;;;13.46;50.82;97057.72;1222255;75;2928392;-61
2024/02/07 09:02:05;;;;;;;7.40;4.60;;;;;;;12.01;52.17;97060.44;1223783;75;2926319;-63
2024/02/07 09:04:38;;;;;;;5.60;4.35;;;;;;;13.57;50.55;97061.16;1224819;75;2930504;-62
2024/02/07 09:07:11;;;;;;;9.70;5.70;;;;;;;10.52;53.77;97068.03;1223643;75;2921908;-62
2024/02/07 09:09:43;;;;;;;7.00;4.80;;;;;;;11.66;53.63;97067.13;1222674;75;2929496;-66
2024/02/07 09:12:16;;;;;;;7.45;4.75;;;;;;;10.83;53.69;97060.97;1224440;75;2922454;-62
2024/02/07 09:14:52;;;;;;;7.15;4.95;;;;;;;10.79;55.03;97063.91;1224695;75;2921738;-62
2024/02/07 09:17:25;;;;;;;7.85;4.70;;;;;;;10.61;55.84;97062.38;1223636;75;2920216;-63
2024/02/07 09:19:58;;;;;;;12.05;6.25;;;;;;;9.31;59.62;97068.06;1223083;75;2929727;-65
2024/02/07 09:22:31;;;;;;;10.85;6.55;;;;;;;8.62;60.94;97073.22;1223861;75;2932501;-62
2024/02/07 09:25:04;;;;;;;13.30;8.00;;;;;;;8.84;61.88;97067.31;1224156;75;2925053;-61
2024/02/07 09:27:37;;;;;;;13.05;7.55;;;;;;;11.14;57.98;97065.56;1223877;75;2918593;-63
2024/02/07 09:30:15;;;;;;;12.40;7.30;;;;;;;11.38;54.54;97067.13;1222290;75;2927225;-64
2024/02/07 09:32:47;;;;;;;10.30;6.70;;;;;;;12.36;54.29;97071.63;1223820;75;2937891;-62
2024/02/07 09:35:20;;;;;;;13.30;7.80;;;;;;;12.09;54.41;97064.19;1223473;75;2928871;-60
2024/02/07 09:37:54;;;;;;;12.80;7.35;;;;;;;12.34;54.67;97057.66;1222873;75;2931241;-67
2024/02/07 09:40:27;;;;;;;11.85;7.55;;;;;;;12.33;54.14;97064.38;1224219;75;2921416;-62
2024/02/07 09:43:01;;;;;;;9.90;6.85;;;;;;;13.43;52.83;97062.25;1223130;75;2924764;-62
2024/02/07 09:45:38;;;;;;;13.80;7.25;;;;;;;12.75;52.46;97051.56;1224382;75;2930681;-61
2024/02/07 09:48:21;;;;;;;11.65;7.60;;;;;;;12.65;52.50;97050.34;1209080;75;4092576;-61
2024/02/07 09:50:57;;;;;;;10.45;7.05;;;;;;;13.80;51.11;97045.22;1224318;75;2923306;-62
2024/02/07 09:53:31;;;;;;;16.70;8.05;;;;;;;13.24;52.11;97039.34;1223614;75;2926217;-61
2024/02/07 09:56:04;;;;;;;11.35;7.50;;;;;;;14.19;50.46;97024.88;1224269;75;2898376;-63
2024/02/07 09:58:37;;;;;;;9.50;6.30;;;;;;;14.21;51.11;97027.84;1224943;75;2921903;-64
2024/02/07 10:01:16;;;;;;;9.65;6.50;;;;;;;13.55;51.91;97018.91;1197566;75;4136237;-61
2024/02/07 10:03:55;;;;;;;12.85;7.30;;;;;;;13.46;51.97;97024.72;1224273;75;2925097;-63
2024/02/07 10:06:28;;;;;;;;;;;;;;;13.63;51.47;97020.59;1225677;75;2931219;-61
2024/02/07 10:09:05;;;;;;;10.10;6.30;;;;;;;15.34;48.86;97019.00;1223520;75;2923191;-65
2024/02/07 10:11:40;;;;;;;12.35;6.80;;;;;;;14.59;50.10;97016.22;1223953;75;2925830;-64
2024/02/07 10:14:14;;;;;;;8.90;5.65;;;;;;;15.45;48.80;97022.88;1223877;75;2929637;-61
2024/02/07 10:16:50;;;;;;;9.85;5.60;;;;;;;16.48;47.46;97006.88;1224290;75;2921957;-61
2024/02/07 10:19:23;;;;;;;7.90;5.30;;;;;;;17.46;44.62;97003.03;1222053;75;2925565;-63
2024/02/07 10:21:56;;;;;;;7.90;4.85;;;;;;;17.18;44.54;96993.38;1224505;75;2925142;-63
2024/02/07 10:24:33;;;;;;;6.55;5.00;;;;;;;16.85;44.57;96999.63;1223899;75;2921288;-66
2024/02/07 10:27:06;;;;;;;7.85;5.45;;;;;;;17.55;42.54;96991.50;1224382;75;2933985;-64
2024/02/07 10:29:40;;;;;;;7.20;4.95;;;;;;;18.07;41.74;96978.66;1223837;75;2922939;-64
2024/02/07 10:32:20;;;;;;;8.35;4.80;;;;;;;17.95;41.29;96979.50;1223621;75;2925399;-63
2024/02/07 10:34:56;;;;;;;9.25;4.30;;;;;;;18.33;39.73;96971.47;1220674;83;2926704;-62
2024/02/07 10:37:45;;;;;;;6.75;4.15;;;;;;;18.35;40.06;96960.56;1251531;75;2806047;-59
2024/02/07 10:40:18;;;;;;;8.30;4.30;;;;;;;17.57;40.80;96963.31;1225707;75;2934129;-62
2024/02/07 10:42:57;;;;;;;7.20;5.10;;;;;;;17.19;41.62;96966.44;1224179;75;2921944;-64
2024/02/07 10:45:30;;;;;;;8.05;5.70;;;;;;;17.10;41.36;96961.38;1223923;75;2929844;-61
2024/02/07 10:48:03;;;;;;;8.10;5.10;;;;;;;17.37;41.37;96959.25;1224567;75;2913368;-61
2024/02/07 10:50:36;;;;;;;9.00;4.60;;;;;;;18.25;40.60;96940.19;1225703;75;2919873;-62
2024/02/07 10:53:12;;;;;;;8.35;5.40;;;;;;;17.25;41.26;96942.91;1225378;75;2917491;-62
2024/02/07 10:55:45;;;;;;;6.50;4.80;;;;;;;17.55;41.54;96936.16;1224060;75;2918254;-67
2024/02/07 10:58:22;;;;;;;9.95;5.25;;;;;;;16.72;42.44;96929.25;1225486;75;2923938;-63
2024/02/07 11:00:57;;;;;;;9.10;5.30;;;;;;;17.03;42.62;96924.81;1225572;75;2928019;-64
2024/02/07 11:03:33;;;;;;;7.90;4.85;;;;;;;17.20;42.01;96923.69;1224251;75;2927726;-63
2024/02/07 11:06:08;;;;;;;6.60;4.75;;;;;;;17.33;41.63;96929.16;1224235;75;2924947;-63
2024/02/07 11:08:43;;;;;;;7.50;5.30;;;;;;;16.10;44.59;96932.50;1225575;75;2924001;-63
2024/02/07 11:11:18;;;;;;;6.60;4.40;;;;;;;15.64;44.30;96929.03;1224355;75;2923939;-63
2024/02/07 11:13:53;;;;;;;7.35;5.00;;;;;;;15.54;45.53;96923.19;1225449;75;2927533;-61
2024/02/07 11:16:26;;;;;;;8.20;5.35;;;;;;;15.15;46.19;96912.75;1226382;75;2925448;-61
2024/02/07 11:18:59;;;;;;;7.70;4.95;;;;;;;14.80;46.59;96909.03;1226062;75;2929574;-64
2024/02/07 11:21:38;;;;;;;6.90;4.95;;;;;;;15.11;46.03;96902.03;1225546;75;2922795;-65
2024/02/07 11:24:20;;;;;;;7.55;4.55;;;;;;;14.87;46.77;96891.88;1225853;75;2924894;-64
2024/02/07 11:26:54;;;;;;;7.50;4.85;;;;;;;14.90;46.76;96899.84;1225228;75;2929703;-62
2024/02/07 11:29:27;;;;;;;6.80;4.25;;;;;;;14.79;46.92;96900.00;1226256;75;2920597;-65
2024/02/07 11:32:00;;;;;;;7.20;4.55;;;;;;;14.86;46.26;96901.41;1224806;75;2925889;-63
2024/02/07 11:34:37;;;;;;;6.70;4.30;;;;;;;14.37;46.68;96899.53;1224971;75;2925574;-66
2024/02/07 11:37:12;;;;;;;7.70;5.20;;;;;;;14.24;46.61;96891.94;1213319;75;3369642;-60
2024/02/07 11:39:51;;;;;;;7.85;4.45;;;;;;;14.35;46.58;96890.31;1225062;75;2919453;-61
2024/02/07 11:42:28;;;;;;;6.75;4.90;;;;;;;14.58;45.53;96885.28;1225727;75;2919821;-63
2024/02/07 11:45:03;;;;;;;8.50;4.90;;;;;;;15.94;44.35;96882.56;1225379;75;2930804;-62
2024/02/07 11:47:42;;;;;;;7.25;4.90;;;;;;;15.18;45.73;96878.66;1225242;75;2920219;-63
2024/02/07 11:50:19;;;;;;;10.00;5.30;;;;;;;16.00;44.34;96876.22;1223618;75;2920560;-63
2024/02/07 11:52:57;;;;;;;6.65;4.90;;;;;;;15.98;44.42;96874.00;1224127;75;2934881;-62
2024/02/07 11:55:43;;;;;;;7.75;5.30;;;;;;;15.19;45.92;96869.81;1221211;75;3003595;-63
2024/02/07 11:58:20;;;;;;;8.20;4.75;;;;;;;15.04;45.79;96866.81;1223770;75;2920104;-64
2024/02/07 12:00:53;;;;;;;10.10;5.00;;;;;;;15.21;45.65;96870.06;1224098;75;2931615;-64
2024/02/07 12:03:26;;;;;;;7.15;4.80;;;;;;;15.24;45.97;96876.53;1224600;75;2923924;-65
2024/02/07 12:05:59;;;;;;;7.10;4.80;;;;;;;15.64;45.55;96871.81;1223810;75;2924155;-66
2024/02/07 12:08:32;;;;;;;11.30;3.75;;;;;;;15.63;44.66;96878.59;1223184;75;2924172;-66
2024/02/07 12:11:09;;;;;;;7.90;4.80;;;;;;;15.20;45.65;96870.56;1224388;75;2928208;-65
2024/02/07 12:13:42;;;;;;;5.75;4.60;;;;;;;15.39;45.89;96865.72;1224148;75;2925292;-64
2024/02/07 12:16:17;;;;;;;6.40;4.25;;;;;;;15.84;46.22;96859.44;1223935;75;2919747;-62
2024/02/07 12:18:49;;;;;;;6.95;4.60;;;;;;;15.86;46.38;96858.91;1223456;75;2929197;-63
2024/02/07 12:21:22;;;;;;;6.55;4.45;;;;;;;15.95;46.29;96864.00;1222346;75;2928860;-66
2024/02/07 12:23:53;;;;;;;6.45;4.35;;;;;;;15.60;45.91;96857.59;1224993;75;2923792;-61
2024/02/07 12:26:30;;;;;;;9.10;4.40;;;;;;;15.69;45.70;96846.16;1224260;75;2925172;-61
2024/02/07 12:29:06;;;;;;;5.65;3.90;;;;;;;15.83;45.01;96840.66;1222957;75;2925003;-64
2024/02/07 12:31:38;;;;;;;6.95;3.95;;;;;;;15.84;44.28;96834.59;1223604;75;2917766;-63
2024/02/07 12:34:13;;;;;;;5.15;3.40;;;;;;;15.57;43.74;96824.81;1223572;75;2929817;-66
2024/02/07 12:36:46;;;;;;;5.10;2.80;;;;;;;16.04;43.05;96821.41;1224487;75;2909136;-62
2024/02/07 12:39:19;;;;;;;4.15;2.75;;;;;;;15.37;43.71;96815.13;1224053;75;2922088;-62
2024/02/07 12:41:54;;;;;;;3.90;2.95;;;;;;;15.74;43.22;96814.97;1224173;75;2922692;-65
2024/02/07 12:44:29;;;;;;;4.80;3.15;;;;;;;15.86;43.50;96814.75;1224166;75;2922191;-63
2024/02/07 12:46:59;;;;;;;7.10;3.15;;;;;;;15.54;43.98;96810.06;1224023;75;2938510;-61
2024/02/07 12:49:32;;;;;;;6.05;3.35;;;;;;;15.94;43.19;96799.03;1223162;75;2927192;-62